sensor_id;sensor_type;location;lat;lon;timestamp;P1;durP1;ratioP1;P2;durP2;ratioP2
18280;SDS011;9266;51.132;17.062;2024-03-08T00:00:29;46.53;;;28.20;;
18280;SDS011;9266;51.132;17.062;2024-03-08T00:02:57;47.73;;;27.80;;
18280;SDS011;9266;51.132;17.062;2024-03-08T00:05:26;47.47;;;29.57;;
18280;SDS011;9266;51.132;17.062;2024-03-08T00:07:53;48.50;;;29.50;;
18280;SDS011;9266;51.132;17.062;2024-03-08T00:10:20;48.67;;;28.87;;
18280;SDS011;9266;51.132;17.062;2024-03-08T00:12:47;47.23;;;29.40;;
18280;SDS011;9266;51.132;17.062;2024-03-08T00:15:16;51.33;;;29.40;;
18280;SDS011;9266;51.132;17.062;2024-03-08T00:17:45;53.67;;;30.37;;
18280;SDS011;9266;51.132;17.062;2024-03-08T00:20:12;49.93;;;29.20;;
18280;SDS011;9266;51.132;17.062;2024-03-08T00:22:39;53.40;;;29.53;;
18280;SDS011;9266;51.132;17.062;2024-03-08T00:25:08;47.63;;;29.53;;
18280;SDS011;9266;51.132;17.062;2024-03-08T00:27:35;50.50;;;31.27;;
18280;SDS011;9266;51.132;17.062;2024-03-08T00:30:03;51.27;;;30.73;;
18280;SDS011;9266;51.132;17.062;2024-03-08T00:32:31;53.10;;;29.80;;
18280;SDS011;9266;51.132;17.062;2024-03-08T00:34:59;49.50;;;28.33;;
18280;SDS011;9266;51.132;17.062;2024-03-08T00:37:26;52.83;;;31.00;;
18280;SDS011;9266;51.132;17.062;2024-03-08T00:39:53;45.33;;;28.97;;
18280;SDS011;9266;51.132;17.062;2024-03-08T00:42:20;53.07;;;30.73;;
18280;SDS011;9266;51.132;17.062;2024-03-08T00:44:47;51.10;;;30.63;;
18280;SDS011;9266;51.132;17.062;2024-03-08T00:47:16;52.27;;;29.53;;
18280;SDS011;9266;51.132;17.062;2024-03-08T00:49:43;50.30;;;30.67;;
18280;SDS011;9266;51.132;17.062;2024-03-08T00:52:11;51.33;;;31.53;;
18280;SDS011;9266;51.132;17.062;2024-03-08T00:54:38;48.90;;;31.30;;
18280;SDS011;9266;51.132;17.062;2024-03-08T00:57:05;50.33;;;29.87;;
18280;SDS011;9266;51.132;17.062;2024-03-08T00:59:32;52.43;;;30.70;;
18280;SDS011;9266;51.132;17.062;2024-03-08T01:01:59;46.93;;;29.47;;
18280;SDS011;9266;51.132;17.062;2024-03-08T01:04:26;52.47;;;31.13;;
18280;SDS011;9266;51.132;17.062;2024-03-08T01:06:54;50.33;;;31.53;;
18280;SDS011;9266;51.132;17.062;2024-03-08T01:09:23;53.77;;;31.20;;
18280;SDS011;9266;51.132;17.062;2024-03-08T01:11:51;46.93;;;29.57;;
18280;SDS011;9266;51.132;17.062;2024-03-08T01:14:19;52.47;;;31.20;;
18280;SDS011;9266;51.132;17.062;2024-03-08T01:16:47;57.43;;;31.33;;
18280;SDS011;9266;51.132;17.062;2024-03-08T01:19:14;55.27;;;30.80;;
18280;SDS011;9266;51.132;17.062;2024-03-08T01:21:41;49.97;;;30.77;;
18280;SDS011;9266;51.132;17.062;2024-03-08T01:24:08;52.57;;;31.13;;
18280;SDS011;9266;51.132;17.062;2024-03-08T01:26:37;52.63;;;31.70;;
18280;SDS011;9266;51.132;17.062;2024-03-08T01:29:03;56.07;;;31.80;;
18280;SDS011;9266;51.132;17.062;2024-03-08T01:31:31;54.37;;;31.97;;
18280;SDS011;9266;51.132;17.062;2024-03-08T01:33:58;58.17;;;33.17;;
18280;SDS011;9266;51.132;17.062;2024-03-08T01:36:25;52.67;;;31.77;;
18280;SDS011;9266;51.132;17.062;2024-03-08T01:38:52;53.57;;;31.10;;
18280;SDS011;9266;51.132;17.062;2024-03-08T01:41:19;53.43;;;31.67;;
18280;SDS011;9266;51.132;17.062;2024-03-08T01:43:47;54.13;;;33.33;;
18280;SDS011;9266;51.132;17.062;2024-03-08T01:46:15;49.00;;;30.27;;
18280;SDS011;9266;51.132;17.062;2024-03-08T01:48:47;51.47;;;31.13;;
18280;SDS011;9266;51.132;17.062;2024-03-08T01:51:15;51.23;;;32.23;;
18280;SDS011;9266;51.132;17.062;2024-03-08T01:53:43;59.33;;;32.70;;
18280;SDS011;9266;51.132;17.062;2024-03-08T01:56:12;50.83;;;30.23;;
18280;SDS011;9266;51.132;17.062;2024-03-08T01:58:40;55.60;;;32.63;;
18280;SDS011;9266;51.132;17.062;2024-03-08T02:01:10;62.53;;;34.33;;
18280;SDS011;9266;51.132;17.062;2024-03-08T02:03:38;59.37;;;32.57;;
18280;SDS011;9266;51.132;17.062;2024-03-08T02:06:05;54.93;;;32.60;;
18280;SDS011;9266;51.132;17.062;2024-03-08T02:08:35;53.77;;;32.93;;
18280;SDS011;9266;51.132;17.062;2024-03-08T02:11:02;59.00;;;34.07;;
18280;SDS011;9266;51.132;17.062;2024-03-08T02:13:30;58.50;;;34.47;;
18280;SDS011;9266;51.132;17.062;2024-03-08T02:15:58;56.90;;;35.10;;
18280;SDS011;9266;51.132;17.062;2024-03-08T02:18:27;59.27;;;34.83;;
18280;SDS011;9266;51.132;17.062;2024-03-08T02:20:57;55.97;;;32.33;;
18280;SDS011;9266;51.132;17.062;2024-03-08T02:23:25;58.13;;;33.83;;
18280;SDS011;9266;51.132;17.062;2024-03-08T02:25:53;58.67;;;34.90;;
18280;SDS011;9266;51.132;17.062;2024-03-08T02:28:21;59.73;;;35.13;;
18280;SDS011;9266;51.132;17.062;2024-03-08T02:30:50;56.10;;;33.77;;
18280;SDS011;9266;51.132;17.062;2024-03-08T02:33:19;59.97;;;34.67;;
18280;SDS011;9266;51.132;17.062;2024-03-08T02:35:46;59.10;;;33.20;;
18280;SDS011;9266;51.132;17.062;2024-03-08T02:38:16;53.50;;;33.20;;
18280;SDS011;9266;51.132;17.062;2024-03-08T02:40:44;57.77;;;33.03;;
18280;SDS011;9266;51.132;17.062;2024-03-08T02:43:12;56.60;;;33.03;;
18280;SDS011;9266;51.132;17.062;2024-03-08T02:45:40;53.70;;;32.33;;
18280;SDS011;9266;51.132;17.062;2024-03-08T02:48:09;57.37;;;32.57;;
18280;SDS011;9266;51.132;17.062;2024-03-08T02:50:36;52.23;;;31.23;;
18280;SDS011;9266;51.132;17.062;2024-03-08T02:53:05;54.53;;;32.30;;
18280;SDS011;9266;51.132;17.062;2024-03-08T02:55:34;59.13;;;35.40;;
18280;SDS011;9266;51.132;17.062;2024-03-08T02:58:01;57.57;;;31.77;;
18280;SDS011;9266;51.132;17.062;2024-03-08T03:00:29;53.87;;;31.10;;
18280;SDS011;9266;51.132;17.062;2024-03-08T03:02:57;54.10;;;31.13;;
18280;SDS011;9266;51.132;17.062;2024-03-08T03:05:24;48.90;;;30.17;;
18280;SDS011;9266;51.132;17.062;2024-03-08T03:07:51;47.90;;;29.53;;
18280;SDS011;9266;51.132;17.062;2024-03-08T03:10:18;51.00;;;31.30;;
18280;SDS011;9266;51.132;17.062;2024-03-08T03:12:48;53.23;;;30.87;;
18280;SDS011;9266;51.132;17.062;2024-03-08T03:15:15;54.10;;;31.00;;
18280;SDS011;9266;51.132;17.062;2024-03-08T03:17:45;50.80;;;30.23;;
18280;SDS011;9266;51.132;17.062;2024-03-08T03:20:12;51.80;;;30.33;;
18280;SDS011;9266;51.132;17.062;2024-03-08T03:22:40;49.40;;;29.53;;
18280;SDS011;9266;51.132;17.062;2024-03-08T03:25:09;55.13;;;30.10;;
18280;SDS011;9266;51.132;17.062;2024-03-08T03:27:37;52.07;;;31.13;;
18280;SDS011;9266;51.132;17.062;2024-03-08T03:30:07;53.13;;;30.30;;
18280;SDS011;9266;51.132;17.062;2024-03-08T03:32:46;56.30;;;31.27;;
18280;SDS011;9266;51.132;17.062;2024-03-08T03:35:13;54.30;;;29.93;;
18280;SDS011;9266;51.132;17.062;2024-03-08T03:37:41;49.83;;;30.67;;
18280;SDS011;9266;51.132;17.062;2024-03-08T03:40:11;50.57;;;29.07;;
18280;SDS011;9266;51.132;17.062;2024-03-08T03:42:39;55.97;;;31.47;;
18280;SDS011;9266;51.132;17.062;2024-03-08T03:45:08;51.63;;;30.20;;
18280;SDS011;9266;51.132;17.062;2024-03-08T03:47:35;51.60;;;29.57;;
18280;SDS011;9266;51.132;17.062;2024-03-08T03:50:04;52.77;;;29.83;;
18280;SDS011;9266;51.132;17.062;2024-03-08T03:52:34;53.77;;;31.20;;
18280;SDS011;9266;51.132;17.062;2024-03-08T03:55:01;51.73;;;31.60;;
18280;SDS011;9266;51.132;17.062;2024-03-08T03:57:29;52.83;;;30.03;;
18280;SDS011;9266;51.132;17.062;2024-03-08T03:59:56;54.87;;;31.60;;
18280;SDS011;9266;51.132;17.062;2024-03-08T04:02:25;52.17;;;31.23;;
18280;SDS011;9266;51.132;17.062;2024-03-08T04:04:52;52.53;;;31.10;;
18280;SDS011;9266;51.132;17.062;2024-03-08T04:07:19;54.90;;;32.13;;
18280;SDS011;9266;51.132;17.062;2024-03-08T04:09:46;51.27;;;30.80;;
18280;SDS011;9266;51.132;17.062;2024-03-08T04:12:14;57.07;;;32.07;;
18280;SDS011;9266;51.132;17.062;2024-03-08T04:14:42;59.33;;;33.07;;
18280;SDS011;9266;51.132;17.062;2024-03-08T04:17:09;55.57;;;33.50;;
18280;SDS011;9266;51.132;17.062;2024-03-08T04:19:39;55.80;;;33.97;;
18280;SDS011;9266;51.132;17.062;2024-03-08T04:22:06;56.27;;;33.70;;
18280;SDS011;9266;51.132;17.062;2024-03-08T04:24:33;57.13;;;33.10;;
18280;SDS011;9266;51.132;17.062;2024-03-08T04:27:00;60.97;;;33.53;;
18280;SDS011;9266;51.132;17.062;2024-03-08T04:29:27;56.77;;;32.93;;
18280;SDS011;9266;51.132;17.062;2024-03-08T04:31:54;53.20;;;32.73;;
18280;SDS011;9266;51.132;17.062;2024-03-08T04:34:21;62.20;;;33.77;;
18280;SDS011;9266;51.132;17.062;2024-03-08T04:36:49;56.97;;;33.93;;
18280;SDS011;9266;51.132;17.062;2024-03-08T04:39:16;56.83;;;33.63;;
18280;SDS011;9266;51.132;17.062;2024-03-08T04:41:43;59.70;;;33.57;;
18280;SDS011;9266;51.132;17.062;2024-03-08T04:44:11;57.50;;;33.73;;
18280;SDS011;9266;51.132;17.062;2024-03-08T04:46:38;60.27;;;35.10;;
18280;SDS011;9266;51.132;17.062;2024-03-08T04:49:06;58.23;;;33.97;;
18280;SDS011;9266;51.132;17.062;2024-03-08T04:51:33;59.73;;;34.43;;
18280;SDS011;9266;51.132;17.062;2024-03-08T04:54:01;57.03;;;34.37;;
18280;SDS011;9266;51.132;17.062;2024-03-08T04:56:29;62.07;;;35.33;;
18280;SDS011;9266;51.132;17.062;2024-03-08T04:58:56;60.10;;;34.63;;
18280;SDS011;9266;51.132;17.062;2024-03-08T05:01:23;59.50;;;34.70;;
18280;SDS011;9266;51.132;17.062;2024-03-08T05:03:51;57.43;;;32.37;;
18280;SDS011;9266;51.132;17.062;2024-03-08T05:06:20;62.73;;;34.53;;
18280;SDS011;9266;51.132;17.062;2024-03-08T05:08:48;67.10;;;36.40;;
18280;SDS011;9266;51.132;17.062;2024-03-08T05:11:17;67.70;;;36.10;;
18280;SDS011;9266;51.132;17.062;2024-03-08T05:13:44;62.60;;;35.93;;
18280;SDS011;9266;51.132;17.062;2024-03-08T05:16:11;66.13;;;35.90;;
18280;SDS011;9266;51.132;17.062;2024-03-08T05:18:40;60.87;;;35.67;;
18280;SDS011;9266;51.132;17.062;2024-03-08T05:21:08;66.17;;;36.50;;
18280;SDS011;9266;51.132;17.062;2024-03-08T05:23:35;63.60;;;36.13;;
18280;SDS011;9266;51.132;17.062;2024-03-08T05:26:03;60.50;;;35.27;;
18280;SDS011;9266;51.132;17.062;2024-03-08T05:28:32;72.13;;;36.80;;
18280;SDS011;9266;51.132;17.062;2024-03-08T05:30:58;62.77;;;36.27;;
18280;SDS011;9266;51.132;17.062;2024-03-08T05:33:26;68.60;;;37.33;;
18280;SDS011;9266;51.132;17.062;2024-03-08T05:35:53;70.70;;;36.07;;
18280;SDS011;9266;51.132;17.062;2024-03-08T05:38:20;69.43;;;37.53;;
18280;SDS011;9266;51.132;17.062;2024-03-08T05:40:47;67.93;;;38.90;;
18280;SDS011;9266;51.132;17.062;2024-03-08T05:43:16;66.00;;;37.83;;
18280;SDS011;9266;51.132;17.062;2024-03-08T05:45:46;65.90;;;37.70;;
18280;SDS011;9266;51.132;17.062;2024-03-08T05:48:13;67.10;;;38.33;;
18280;SDS011;9266;51.132;17.062;2024-03-08T05:50:40;65.67;;;37.37;;
18280;SDS011;9266;51.132;17.062;2024-03-08T05:53:08;66.37;;;36.87;;
18280;SDS011;9266;51.132;17.062;2024-03-08T05:55:35;65.67;;;37.10;;
18280;SDS011;9266;51.132;17.062;2024-03-08T05:58:02;64.43;;;36.17;;
18280;SDS011;9266;51.132;17.062;2024-03-08T06:00:30;66.90;;;38.33;;
18280;SDS011;9266;51.132;17.062;2024-03-08T06:02:58;56.37;;;33.47;;
18280;SDS011;9266;51.132;17.062;2024-03-08T06:05:25;62.93;;;36.17;;
18280;SDS011;9266;51.132;17.062;2024-03-08T06:07:52;59.53;;;34.97;;
18280;SDS011;9266;51.132;17.062;2024-03-08T06:10:19;59.20;;;34.90;;
18280;SDS011;9266;51.132;17.062;2024-03-08T06:12:46;57.23;;;33.40;;
18280;SDS011;9266;51.132;17.062;2024-03-08T06:15:13;57.73;;;33.00;;
18280;SDS011;9266;51.132;17.062;2024-03-08T06:17:41;46.87;;;30.70;;
18280;SDS011;9266;51.132;17.062;2024-03-08T06:20:10;51.63;;;31.57;;
18280;SDS011;9266;51.132;17.062;2024-03-08T06:22:38;49.63;;;30.80;;
18280;SDS011;9266;51.132;17.062;2024-03-08T06:25:06;51.90;;;29.23;;
18280;SDS011;9266;51.132;17.062;2024-03-08T06:27:33;50.50;;;29.63;;
18280;SDS011;9266;51.132;17.062;2024-03-08T06:30:00;43.63;;;27.53;;
18280;SDS011;9266;51.132;17.062;2024-03-08T06:32:29;45.63;;;28.50;;
18280;SDS011;9266;51.132;17.062;2024-03-08T06:34:58;47.27;;;28.80;;
18280;SDS011;9266;51.132;17.062;2024-03-08T06:37:26;43.83;;;28.90;;
18280;SDS011;9266;51.132;17.062;2024-03-08T06:39:53;44.33;;;29.23;;
18280;SDS011;9266;51.132;17.062;2024-03-08T06:42:20;46.27;;;27.97;;
18280;SDS011;9266;51.132;17.062;2024-03-08T06:44:47;44.17;;;29.00;;
18280;SDS011;9266;51.132;17.062;2024-03-08T06:47:15;44.40;;;27.63;;
18280;SDS011;9266;51.132;17.062;2024-03-08T06:49:42;50.70;;;28.87;;
18280;SDS011;9266;51.132;17.062;2024-03-08T06:52:08;45.53;;;28.47;;
18280;SDS011;9266;51.132;17.062;2024-03-08T06:54:37;40.57;;;26.40;;
18280;SDS011;9266;51.132;17.062;2024-03-08T06:57:04;41.73;;;26.77;;
18280;SDS011;9266;51.132;17.062;2024-03-08T06:59:31;40.93;;;27.17;;
18280;SDS011;9266;51.132;17.062;2024-03-08T07:02:00;41.87;;;26.67;;
18280;SDS011;9266;51.132;17.062;2024-03-08T07:04:27;37.80;;;25.53;;
18280;SDS011;9266;51.132;17.062;2024-03-08T07:06:55;37.17;;;24.30;;
18280;SDS011;9266;51.132;17.062;2024-03-08T07:09:22;41.63;;;26.57;;
18280;SDS011;9266;51.132;17.062;2024-03-08T07:11:51;37.47;;;23.40;;
18280;SDS011;9266;51.132;17.062;2024-03-08T07:14:20;38.33;;;23.57;;
18280;SDS011;9266;51.132;17.062;2024-03-08T07:16:48;38.20;;;24.23;;
18280;SDS011;9266;51.132;17.062;2024-03-08T07:19:15;33.90;;;24.00;;
18280;SDS011;9266;51.132;17.062;2024-03-08T07:21:42;38.33;;;25.20;;
18280;SDS011;9266;51.132;17.062;2024-03-08T07:24:09;39.93;;;25.57;;
18280;SDS011;9266;51.132;17.062;2024-03-08T07:26:54;39.77;;;25.13;;
18280;SDS011;9266;51.132;17.062;2024-03-08T07:29:21;36.37;;;24.57;;
18280;SDS011;9266;51.132;17.062;2024-03-08T07:31:48;37.73;;;25.07;;
18280;SDS011;9266;51.132;17.062;2024-03-08T07:34:26;41.30;;;25.53;;
18280;SDS011;9266;51.132;17.062;2024-03-08T07:36:55;42.77;;;26.13;;
18280;SDS011;9266;51.132;17.062;2024-03-08T07:39:22;38.87;;;26.03;;
18280;SDS011;9266;51.132;17.062;2024-03-08T07:41:49;41.33;;;27.27;;
18280;SDS011;9266;51.132;17.062;2024-03-08T07:44:19;38.90;;;25.37;;
18280;SDS011;9266;51.132;17.062;2024-03-08T07:46:45;38.27;;;23.40;;
18280;SDS011;9266;51.132;17.062;2024-03-08T07:49:12;37.80;;;25.03;;
18280;SDS011;9266;51.132;17.062;2024-03-08T07:51:40;37.90;;;25.50;;
18280;SDS011;9266;51.132;17.062;2024-03-08T07:54:07;42.97;;;25.87;;
18280;SDS011;9266;51.132;17.062;2024-03-08T07:56:34;40.17;;;24.73;;
18280;SDS011;9266;51.132;17.062;2024-03-08T07:59:02;38.87;;;26.57;;
18280;SDS011;9266;51.132;17.062;2024-03-08T08:01:31;40.47;;;26.23;;
18280;SDS011;9266;51.132;17.062;2024-03-08T08:03:59;40.73;;;25.93;;
18280;SDS011;9266;51.132;17.062;2024-03-08T08:06:26;42.50;;;26.30;;
18280;SDS011;9266;51.132;17.062;2024-03-08T08:08:53;42.00;;;26.53;;
18280;SDS011;9266;51.132;17.062;2024-03-08T08:11:20;40.83;;;26.97;;
18280;SDS011;9266;51.132;17.062;2024-03-08T08:13:47;36.03;;;24.50;;
18280;SDS011;9266;51.132;17.062;2024-03-08T08:16:14;36.17;;;25.13;;
18280;SDS011;9266;51.132;17.062;2024-03-08T08:18:42;35.13;;;25.30;;
18280;SDS011;9266;51.132;17.062;2024-03-08T08:21:11;40.03;;;24.80;;
18280;SDS011;9266;51.132;17.062;2024-03-08T08:23:38;39.07;;;25.40;;
18280;SDS011;9266;51.132;17.062;2024-03-08T08:26:05;36.63;;;23.63;;
18280;SDS011;9266;51.132;17.062;2024-03-08T08:28:32;37.87;;;25.50;;
18280;SDS011;9266;51.132;17.062;2024-03-08T08:30:59;39.43;;;25.27;;
18280;SDS011;9266;51.132;17.062;2024-03-08T08:33:29;38.97;;;24.83;;
18280;SDS011;9266;51.132;17.062;2024-03-08T08:35:57;39.87;;;26.30;;
18280;SDS011;9266;51.132;17.062;2024-03-08T08:38:24;36.63;;;26.13;;
18280;SDS011;9266;51.132;17.062;2024-03-08T08:40:51;41.17;;;27.13;;
18280;SDS011;9266;51.132;17.062;2024-03-08T08:43:18;43.07;;;25.83;;
18280;SDS011;9266;51.132;17.062;2024-03-08T08:45:49;39.93;;;25.63;;
18280;SDS011;9266;51.132;17.062;2024-03-08T08:48:19;41.10;;;26.33;;
18280;SDS011;9266;51.132;17.062;2024-03-08T08:50:46;35.13;;;21.97;;
18280;SDS011;9266;51.132;17.062;2024-03-08T08:53:17;39.70;;;25.90;;
18280;SDS011;9266;51.132;17.062;2024-03-08T08:55:44;41.50;;;27.50;;
18280;SDS011;9266;51.132;17.062;2024-03-08T08:58:11;41.53;;;26.63;;
18280;SDS011;9266;51.132;17.062;2024-03-08T09:00:39;41.70;;;27.33;;
18280;SDS011;9266;51.132;17.062;2024-03-08T09:03:06;44.17;;;28.67;;
18280;SDS011;9266;51.132;17.062;2024-03-08T09:05:33;40.27;;;26.27;;
18280;SDS011;9266;51.132;17.062;2024-03-08T09:08:00;41.53;;;26.63;;
18280;SDS011;9266;51.132;17.062;2024-03-08T09:10:29;44.17;;;26.67;;
18280;SDS011;9266;51.132;17.062;2024-03-08T09:12:56;39.37;;;25.87;;
18280;SDS011;9266;51.132;17.062;2024-03-08T09:15:24;39.40;;;26.10;;
18280;SDS011;9266;51.132;17.062;2024-03-08T09:17:53;43.27;;;27.97;;
18280;SDS011;9266;51.132;17.062;2024-03-08T09:20:20;41.13;;;25.50;;
18280;SDS011;9266;51.132;17.062;2024-03-08T09:22:47;44.00;;;27.90;;
18280;SDS011;9266;51.132;17.062;2024-03-08T09:25:14;44.40;;;27.03;;
18280;SDS011;9266;51.132;17.062;2024-03-08T09:27:42;40.50;;;26.73;;
18280;SDS011;9266;51.132;17.062;2024-03-08T09:30:11;41.50;;;28.63;;
18280;SDS011;9266;51.132;17.062;2024-03-08T09:32:40;39.40;;;27.93;;
18280;SDS011;9266;51.132;17.062;2024-03-08T09:35:08;36.17;;;25.27;;
18280;SDS011;9266;51.132;17.062;2024-03-08T09:37:36;40.03;;;26.27;;
18280;SDS011;9266;51.132;17.062;2024-03-08T09:40:03;40.73;;;25.90;;
18280;SDS011;9266;51.132;17.062;2024-03-08T09:42:34;34.07;;;23.43;;
18280;SDS011;9266;51.132;17.062;2024-03-08T09:45:05;35.30;;;22.33;;
18280;SDS011;9266;51.132;17.062;2024-03-08T09:47:36;37.30;;;23.17;;
18280;SDS011;9266;51.132;17.062;2024-03-08T09:50:06;35.20;;;23.97;;
18280;SDS011;9266;51.132;17.062;2024-03-08T09:52:34;34.13;;;22.43;;
18280;SDS011;9266;51.132;17.062;2024-03-08T09:55:03;36.07;;;22.57;;
18280;SDS011;9266;51.132;17.062;2024-03-08T09:57:32;33.13;;;22.20;;
18280;SDS011;9266;51.132;17.062;2024-03-08T09:59:59;33.30;;;23.13;;
18280;SDS011;9266;51.132;17.062;2024-03-08T10:02:27;28.80;;;20.57;;
18280;SDS011;9266;51.132;17.062;2024-03-08T10:04:55;31.80;;;22.30;;
18280;SDS011;9266;51.132;17.062;2024-03-08T10:07:23;30.70;;;21.20;;
18280;SDS011;9266;51.132;17.062;2024-03-08T10:09:51;28.53;;;20.30;;
18280;SDS011;9266;51.132;17.062;2024-03-08T10:12:18;28.97;;;19.10;;
18280;SDS011;9266;51.132;17.062;2024-03-08T10:14:46;29.37;;;20.57;;
18280;SDS011;9266;51.132;17.062;2024-03-08T10:17:13;29.10;;;19.43;;
18280;SDS011;9266;51.132;17.062;2024-03-08T10:19:49;30.53;;;21.00;;
18280;SDS011;9266;51.132;17.062;2024-03-08T10:22:17;34.07;;;20.97;;
18280;SDS011;9266;51.132;17.062;2024-03-08T10:24:44;30.00;;;20.77;;
18280;SDS011;9266;51.132;17.062;2024-03-08T10:27:12;31.00;;;19.83;;
18280;SDS011;9266;51.132;17.062;2024-03-08T10:29:41;27.63;;;18.37;;
18280;SDS011;9266;51.132;17.062;2024-03-08T10:32:09;26.57;;;17.90;;
18280;SDS011;9266;51.132;17.062;2024-03-08T10:34:37;28.23;;;18.27;;
18280;SDS011;9266;51.132;17.062;2024-03-08T10:37:05;26.80;;;18.70;;
18280;SDS011;9266;51.132;17.062;2024-03-08T10:39:36;24.47;;;17.60;;
18280;SDS011;9266;51.132;17.062;2024-03-08T10:42:05;25.33;;;17.33;;
18280;SDS011;9266;51.132;17.062;2024-03-08T10:44:46;25.17;;;16.27;;
18280;SDS011;9266;51.132;17.062;2024-03-08T10:47:26;26.70;;;18.53;;
18280;SDS011;9266;51.132;17.062;2024-03-08T10:50:08;25.47;;;17.73;;
18280;SDS011;9266;51.132;17.062;2024-03-08T10:52:43;26.00;;;18.17;;
18280;SDS011;9266;51.132;17.062;2024-03-08T10:55:10;23.63;;;16.73;;
18280;SDS011;9266;51.132;17.062;2024-03-08T10:57:40;23.80;;;17.33;;
18280;SDS011;9266;51.132;17.062;2024-03-08T11:00:08;28.17;;;18.20;;
18280;SDS011;9266;51.132;17.062;2024-03-08T11:02:39;25.03;;;17.17;;
18280;SDS011;9266;51.132;17.062;2024-03-08T11:05:09;26.80;;;17.87;;
18280;SDS011;9266;51.132;17.062;2024-03-08T11:07:40;25.67;;;16.73;;
18280;SDS011;9266;51.132;17.062;2024-03-08T11:10:18;23.70;;;16.27;;
18280;SDS011;9266;51.132;17.062;2024-03-08T11:12:46;21.80;;;16.53;;
18280;SDS011;9266;51.132;17.062;2024-03-08T11:15:13;23.50;;;16.10;;
18280;SDS011;9266;51.132;17.062;2024-03-08T11:17:47;19.80;;;15.43;;
18280;SDS011;9266;51.132;17.062;2024-03-08T11:20:15;21.40;;;14.50;;
18280;SDS011;9266;51.132;17.062;2024-03-08T11:22:50;20.30;;;14.37;;
18280;SDS011;9266;51.132;17.062;2024-03-08T11:25:32;21.77;;;15.70;;
18280;SDS011;9266;51.132;17.062;2024-03-08T11:28:14;22.50;;;15.37;;
18280;SDS011;9266;51.132;17.062;2024-03-08T11:30:46;21.43;;;15.73;;
18280;SDS011;9266;51.132;17.062;2024-03-08T11:33:16;26.07;;;18.13;;
18280;SDS011;9266;51.132;17.062;2024-03-08T11:35:43;23.73;;;16.90;;
18280;SDS011;9266;51.132;17.062;2024-03-08T11:38:12;20.43;;;15.20;;
18280;SDS011;9266;51.132;17.062;2024-03-08T11:40:40;20.27;;;15.03;;
18280;SDS011;9266;51.132;17.062;2024-03-08T11:43:08;22.57;;;15.90;;
18280;SDS011;9266;51.132;17.062;2024-03-08T11:45:35;23.43;;;16.47;;
18280;SDS011;9266;51.132;17.062;2024-03-08T11:48:03;24.00;;;17.03;;
18280;SDS011;9266;51.132;17.062;2024-03-08T11:50:31;23.67;;;17.60;;
18280;SDS011;9266;51.132;17.062;2024-03-08T11:53:02;23.47;;;16.97;;
18280;SDS011;9266;51.132;17.062;2024-03-08T11:55:31;23.17;;;16.53;;
18280;SDS011;9266;51.132;17.062;2024-03-08T11:58:03;23.63;;;16.93;;
18280;SDS011;9266;51.132;17.062;2024-03-08T12:00:33;25.27;;;16.67;;
18280;SDS011;9266;51.132;17.062;2024-03-08T12:03:04;18.70;;;14.87;;
18280;SDS011;9266;51.132;17.062;2024-03-08T12:05:32;23.63;;;16.67;;
18280;SDS011;9266;51.132;17.062;2024-03-08T12:07:59;24.07;;;18.13;;
18280;SDS011;9266;51.132;17.062;2024-03-08T12:10:27;24.47;;;17.60;;
18280;SDS011;9266;51.132;17.062;2024-03-08T12:12:56;26.40;;;16.33;;
18280;SDS011;9266;51.132;17.062;2024-03-08T12:15:24;22.60;;;16.33;;
18280;SDS011;9266;51.132;17.062;2024-03-08T12:17:52;21.33;;;15.20;;
18280;SDS011;9266;51.132;17.062;2024-03-08T12:20:21;21.07;;;15.30;;
18280;SDS011;9266;51.132;17.062;2024-03-08T12:22:50;23.77;;;16.90;;
18280;SDS011;9266;51.132;17.062;2024-03-08T12:25:18;21.23;;;16.40;;
18280;SDS011;9266;51.132;17.062;2024-03-08T12:27:46;23.50;;;15.57;;
18280;SDS011;9266;51.132;17.062;2024-03-08T12:30:21;24.23;;;15.57;;
18280;SDS011;9266;51.132;17.062;2024-03-08T12:32:53;20.77;;;14.77;;
18280;SDS011;9266;51.132;17.062;2024-03-08T12:35:23;19.13;;;15.27;;
18280;SDS011;9266;51.132;17.062;2024-03-08T12:37:51;24.60;;;16.60;;
18280;SDS011;9266;51.132;17.062;2024-03-08T12:40:25;23.97;;;15.73;;
18280;SDS011;9266;51.132;17.062;2024-03-08T12:42:53;20.83;;;14.97;;
18280;SDS011;9266;51.132;17.062;2024-03-08T12:45:21;18.70;;;13.97;;
18280;SDS011;9266;51.132;17.062;2024-03-08T12:47:49;23.87;;;15.53;;
18280;SDS011;9266;51.132;17.062;2024-03-08T12:50:18;22.97;;;16.10;;
18280;SDS011;9266;51.132;17.062;2024-03-08T12:52:45;23.20;;;15.50;;
18280;SDS011;9266;51.132;17.062;2024-03-08T12:55:13;20.60;;;15.00;;
18280;SDS011;9266;51.132;17.062;2024-03-08T12:57:41;20.13;;;14.83;;
18280;SDS011;9266;51.132;17.062;2024-03-08T13:00:09;19.50;;;14.07;;
18280;SDS011;9266;51.132;17.062;2024-03-08T13:02:39;20.80;;;15.10;;
18280;SDS011;9266;51.132;17.062;2024-03-08T13:05:07;23.87;;;15.60;;
18280;SDS011;9266;51.132;17.062;2024-03-08T13:07:35;22.03;;;15.50;;
18280;SDS011;9266;51.132;17.062;2024-03-08T13:10:03;21.17;;;16.17;;
18280;SDS011;9266;51.132;17.062;2024-03-08T13:12:32;23.93;;;15.80;;
18280;SDS011;9266;51.132;17.062;2024-03-08T13:15:03;23.23;;;15.50;;
18280;SDS011;9266;51.132;17.062;2024-03-08T13:17:30;25.73;;;16.43;;
18280;SDS011;9266;51.132;17.062;2024-03-08T13:19:59;22.73;;;16.10;;
18280;SDS011;9266;51.132;17.062;2024-03-08T13:22:30;24.00;;;16.07;;
18280;SDS011;9266;51.132;17.062;2024-03-08T13:24:57;20.93;;;14.70;;
18280;SDS011;9266;51.132;17.062;2024-03-08T13:27:26;22.90;;;16.10;;
18280;SDS011;9266;51.132;17.062;2024-03-08T13:29:53;22.33;;;16.17;;
18280;SDS011;9266;51.132;17.062;2024-03-08T13:32:20;23.17;;;16.17;;
18280;SDS011;9266;51.132;17.062;2024-03-08T13:34:47;21.10;;;15.40;;
18280;SDS011;9266;51.132;17.062;2024-03-08T13:37:17;20.30;;;15.03;;
18280;SDS011;9266;51.132;17.062;2024-03-08T13:39:44;21.70;;;15.50;;
18280;SDS011;9266;51.132;17.062;2024-03-08T13:42:11;19.40;;;14.77;;
18280;SDS011;9266;51.132;17.062;2024-03-08T13:44:43;20.43;;;16.50;;
18280;SDS011;9266;51.132;17.062;2024-03-08T13:47:11;23.13;;;16.63;;
18280;SDS011;9266;51.132;17.062;2024-03-08T13:49:38;25.13;;;18.00;;
18280;SDS011;9266;51.132;17.062;2024-03-08T13:52:05;28.80;;;19.10;;
18280;SDS011;9266;51.132;17.062;2024-03-08T13:54:35;26.47;;;18.47;;
18280;SDS011;9266;51.132;17.062;2024-03-08T13:57:03;24.97;;;17.27;;
18280;SDS011;9266;51.132;17.062;2024-03-08T13:59:32;24.17;;;16.83;;
18280;SDS011;9266;51.132;17.062;2024-03-08T14:02:00;22.10;;;14.63;;
18280;SDS011;9266;51.132;17.062;2024-03-08T14:04:27;25.77;;;16.13;;
18280;SDS011;9266;51.132;17.062;2024-03-08T14:06:54;24.20;;;16.57;;
18280;SDS011;9266;51.132;17.062;2024-03-08T14:09:26;25.40;;;16.70;;
18280;SDS011;9266;51.132;17.062;2024-03-08T14:11:55;20.37;;;15.10;;
18280;SDS011;9266;51.132;17.062;2024-03-08T14:14:23;21.30;;;15.00;;
18280;SDS011;9266;51.132;17.062;2024-03-08T14:16:50;19.60;;;14.83;;
18280;SDS011;9266;51.132;17.062;2024-03-08T14:19:19;22.93;;;14.90;;
18280;SDS011;9266;51.132;17.062;2024-03-08T14:21:46;21.47;;;15.87;;
18280;SDS011;9266;51.132;17.062;2024-03-08T14:24:14;23.13;;;16.80;;
18280;SDS011;9266;51.132;17.062;2024-03-08T14:26:41;23.50;;;16.27;;